Shumway, Arizona
Current Conditions -  °F | °C
As of 6:15 PM on Sunday 23 Nov 2014 (Local Time) from KSOW Reporting Station
Clear Clear  
Wind Chill: 24°   Ceiling: Unl
Heat Index: 32°   Visibility: 10mi
Dew Point: -4°   Wind: 9mph
Humidity: 21%   Direction: 350°N
Pressure: 30.15"   Gusts: NA
Location:  34.094°N, 110.086°W
Report Text: KSOW 240115Z AUTO 35008KT 10SM CLR 00/M20 A3015 RMK AO2
Loading
Personal Weather Stations






























Interactive Weather Map New forecast layout! Learn more

10-Day Weather Forecast

Advertisements
Track Severe Weather on mobile